createdAt,value
2019-01-31T00:00:49.498Z,95.70
2019-01-31T00:03:58.828Z,96.00
2019-01-31T00:07:10.427Z,96.40
2019-01-31T00:10:29.461Z,96.10
2019-01-31T00:13:13.818Z,96.90
2019-01-31T00:16:07.460Z,96.70
2019-01-31T00:19:05.856Z,97.00
2019-01-31T00:21:57.297Z,97.00
2019-01-31T00:24:41.331Z,97.20
2019-01-31T00:27:27.417Z,97.10
2019-01-31T00:30:35.461Z,96.90
2019-01-31T00:33:35.133Z,97.30
2019-01-31T00:37:09.636Z,97.10
2019-01-31T00:40:17.727Z,97.40
2019-01-31T00:43:41.994Z,98.50
2019-01-31T00:46:34.337Z,98.00
2019-01-31T00:50:12.110Z,97.40
2019-01-31T00:53:11.551Z,97.20
2019-01-31T00:56:06.850Z,97.80
2019-01-31T00:59:01.383Z,97.40
2019-01-31T01:01:45.561Z,97.80
2019-01-31T01:05:06.596Z,97.60
2019-01-31T01:08:05.129Z,97.50
2019-01-31T01:11:02.349Z,97.50
2019-01-31T01:14:00.601Z,97.70
2019-01-31T01:16:43.377Z,98.10
2019-01-31T01:19:48.579Z,98.00
2019-01-31T01:22:51.022Z,98.40
2019-01-31T01:25:30.539Z,98.80
2019-01-31T01:28:08.028Z,98.60
2019-01-31T01:31:22.789Z,98.70
2019-01-31T01:34:27.729Z,98.80
2019-01-31T01:37:31.174Z,99.20
2019-01-31T01:40:38.453Z,98.90
2019-01-31T01:43:45.221Z,98.40
2019-01-31T01:46:42.662Z,98.30
2019-01-31T01:49:36.446Z,98.50
2019-01-31T01:52:16.319Z,98.10
2019-01-31T01:55:12.417Z,98.40
2019-01-31T01:57:58.614Z,98.30
2019-01-31T02:00:58.749Z,98.10
2019-01-31T02:03:47.945Z,98.60
2019-01-31T02:07:13.403Z,98.60
2019-01-31T02:10:41.943Z,98.40
2019-01-31T02:13:47.769Z,97.80
2019-01-31T02:16:51.559Z,98.00
2019-01-31T02:19:50.397Z,98.30
2019-01-31T02:22:57.058Z,98.00
2019-01-31T02:25:31.624Z,97.80
2019-01-31T02:28:42.031Z,97.90
2019-01-31T02:31:50.613Z,98.20
2019-01-31T02:35:02.678Z,98.30
2019-01-31T02:37:59.109Z,98.20
2019-01-31T02:40:42.206Z,98.50
2019-01-31T02:43:22.451Z,98.90
2019-01-31T02:46:28.203Z,98.50
2019-01-31T02:49:08.679Z,98.20
2019-01-31T02:52:11.933Z,98.40
2019-01-31T02:55:28.358Z,98.90
2019-01-31T02:58:24.529Z,98.50
2019-01-31T03:01:22.597Z,98.70
2019-01-31T03:04:18.817Z,98.30
2019-01-31T03:07:21.398Z,98.80
2019-01-31T03:10:18.895Z,98.30
2019-01-31T03:13:32.294Z,98.30
2019-01-31T03:16:23.180Z,98.40
2019-01-31T03:19:06.732Z,98.60
2019-01-31T03:22:02.156Z,98.20
2019-01-31T03:24:41.678Z,98.10
2019-01-31T03:27:54.761Z,98.20
2019-01-31T03:31:04.165Z,98.50
2019-01-31T03:33:59.352Z,97.80
2019-01-31T03:36:53.793Z,97.60
2019-01-31T03:39:52.216Z,97.80
2019-01-31T03:42:56.254Z,97.90
2019-01-31T03:45:37.085Z,98.10
2019-01-31T03:48:26.824Z,98.20
2019-01-31T03:51:29.862Z,98.20
2019-01-31T03:54:16.272Z,98.40
2019-01-31T03:57:06.549Z,98.50
2019-01-31T03:59:44.020Z,98.30
2019-01-31T04:02:47.193Z,97.60
2019-01-31T04:05:45.317Z,97.40
2019-01-31T04:08:14.299Z,97.30
2019-01-31T04:10:43.214Z,97.60
2019-01-31T04:13:12.048Z,97.60
2019-01-31T04:15:41.035Z,97.60
2019-01-31T04:18:10.225Z,97.90
2019-01-31T04:20:39.145Z,98.20
2019-01-31T04:23:08.037Z,98.20
2019-01-31T04:25:36.950Z,98.20
2019-01-31T04:28:06.025Z,98.50
2019-01-31T04:30:34.923Z,98.30
2019-01-31T04:33:04.155Z,98.50
2019-01-31T04:35:33.142Z,98.40
2019-01-31T04:38:02.255Z,98.00
2019-01-31T04:40:31.824Z,98.40
2019-01-31T04:43:00.839Z,98.40
2019-01-31T04:45:29.788Z,99.10
2019-01-31T04:47:58.821Z,99.20
2019-01-31T04:50:27.734Z,99.20
2019-01-31T04:52:56.694Z,99.20
2019-01-31T04:55:25.707Z,99.10
2019-01-31T04:57:54.728Z,98.70
2019-01-31T05:00:23.728Z,99.00
2019-01-31T05:02:52.650Z,99.50
2019-01-31T05:05:21.565Z,99.40
2019-01-31T05:07:50.406Z,99.40
2019-01-31T05:10:19.234Z,99.10
2019-01-31T05:12:48.282Z,98.80
2019-01-31T05:15:17.623Z,98.80
2019-01-31T05:17:46.723Z,98.90
2019-01-31T05:20:17.242Z,99.20
2019-01-31T05:22:46.158Z,99.50
2019-01-31T05:25:15.553Z,99.90
2019-01-31T05:27:44.532Z,99.40
2019-01-31T05:30:15.529Z,99.80
2019-01-31T05:32:44.746Z,99.70
2019-01-31T05:35:14.084Z,99.90
2019-01-31T05:37:43.330Z,99.80
2019-01-31T05:40:14.238Z,99.90
2019-01-31T05:42:43.159Z,99.90
2019-01-31T05:45:14.058Z,99.90
2019-01-31T05:47:43.209Z,99.90
2019-01-31T05:50:18.915Z,99.90
2019-01-31T05:52:47.949Z,99.90
2019-01-31T05:55:17.367Z,99.90
2019-01-31T05:57:46.194Z,99.90
2019-01-31T06:00:23.334Z,99.90
2019-01-31T06:02:52.168Z,99.90
2019-01-31T06:05:21.628Z,99.90
2019-01-31T06:07:50.561Z,99.90
2019-01-31T06:10:19.470Z,99.50
2019-01-31T06:12:48.325Z,99.80
2019-01-31T06:15:19.138Z,99.60
2019-01-31T06:17:48.627Z,99.50
2019-01-31T06:20:20.375Z,99.90
2019-01-31T06:22:49.206Z,99.90
2019-01-31T06:25:18.501Z,99.90
2019-01-31T06:27:47.985Z,99.90
2019-01-31T06:30:17.432Z,99.90
2019-01-31T06:32:46.409Z,99.90
2019-01-31T06:35:16.256Z,99.90
2019-01-31T06:37:45.651Z,99.90
2019-01-31T06:40:17.633Z,99.80
2019-01-31T06:42:46.534Z,99.70
2019-01-31T06:45:17.647Z,99.80
2019-01-31T06:47:46.613Z,99.60
2019-01-31T06:50:15.605Z,99.70
2019-01-31T06:52:44.582Z,99.40
2019-01-31T06:55:14.043Z,99.50
2019-01-31T06:57:43.055Z,99.40
2019-01-31T07:00:14.965Z,99.50
2019-01-31T07:02:44.172Z,99.40
2019-01-31T07:05:13.241Z,99.50
2019-01-31T07:07:42.201Z,99.80
2019-01-31T07:10:22.402Z,99.90
2019-01-31T07:12:51.451Z,99.90
2019-01-31T07:15:20.471Z,99.90
2019-01-31T07:17:49.460Z,99.80
2019-01-31T07:20:18.551Z,99.90
2019-01-31T07:22:47.533Z,99.90
2019-01-31T07:25:18.893Z,99.90
2019-01-31T07:27:47.871Z,99.90
2019-01-31T07:30:17.412Z,99.90
2019-01-31T07:32:46.375Z,99.90
2019-01-31T07:35:15.886Z,99.90
2019-01-31T07:37:44.837Z,99.90
2019-01-31T07:40:16.177Z,99.90
2019-01-31T07:42:45.230Z,99.90
2019-01-31T07:45:25.945Z,99.90
2019-01-31T07:47:55.294Z,99.90
2019-01-31T07:50:24.295Z,99.90
2019-01-31T07:52:53.482Z,99.90
2019-01-31T07:55:22.417Z,99.90
2019-01-31T07:57:51.457Z,99.80
2019-01-31T08:00:21.009Z,99.90
2019-01-31T08:02:50.001Z,99.90
2019-01-31T08:05:20.518Z,99.90
2019-01-31T08:07:51.062Z,99.90
2019-01-31T08:10:25.762Z,99.90
2019-01-31T08:12:54.792Z,99.90
2019-01-31T08:15:23.822Z,99.80
2019-01-31T08:17:52.765Z,99.90
2019-01-31T08:20:42.361Z,99.50
2019-01-31T08:23:11.357Z,99.40
2019-01-31T08:25:40.212Z,99.30
2019-01-31T08:28:09.388Z,99.10
2019-01-31T08:30:40.535Z,98.70
2019-01-31T08:33:09.858Z,98.30
2019-01-31T08:35:38.840Z,98.00
2019-01-31T08:38:07.741Z,97.80
2019-01-31T08:40:36.649Z,97.80
2019-01-31T08:43:05.677Z,97.10
2019-01-31T08:45:34.544Z,96.70
2019-01-31T08:48:03.639Z,96.70
2019-01-31T08:50:32.873Z,96.70
2019-01-31T08:53:01.847Z,96.20
2019-01-31T08:55:30.837Z,95.20
2019-01-31T08:58:00.005Z,95.50
2019-01-31T09:00:29.961Z,94.80
2019-01-31T09:02:59.050Z,94.60
2019-01-31T09:05:28.109Z,94.40
2019-01-31T09:07:57.445Z,93.60
2019-01-31T09:10:31.288Z,93.30
2019-01-31T09:13:02.024Z,93.60
2019-01-31T09:15:31.001Z,92.70
2019-01-31T09:17:59.988Z,92.50
2019-01-31T09:20:52.890Z,92.40
2019-01-31T09:24:02.940Z,91.10
2019-01-31T09:27:06.714Z,91.50
2019-01-31T09:30:20.266Z,91.20
2019-01-31T09:33:21.769Z,89.60
2019-01-31T09:36:19.918Z,86.80
2019-01-31T09:39:38.133Z,87.60
2019-01-31T09:42:34.058Z,85.60
2019-01-31T09:45:34.340Z,83.30
2019-01-31T09:48:21.301Z,84.10
2019-01-31T09:51:31.493Z,84.30
2019-01-31T09:54:57.187Z,82.40
2019-01-31T09:58:19.281Z,83.20
2019-01-31T10:01:38.078Z,81.20
2019-01-31T10:04:21.818Z,79.70
2019-01-31T10:07:30.969Z,80.90
2019-01-31T10:10:34.126Z,81.50
2019-01-31T10:13:19.780Z,80.40
2019-01-31T10:16:09.056Z,79.20
2019-01-31T10:18:55.922Z,78.50
2019-01-31T10:22:03.092Z,76.20
2019-01-31T10:25:06.956Z,76.10
2019-01-31T10:28:25.545Z,76.60
2019-01-31T10:31:45.202Z,73.20
2019-01-31T10:34:53.921Z,71.50
2019-01-31T10:37:51.345Z,70.40
2019-01-31T10:40:52.201Z,70.20
2019-01-31T10:43:52.287Z,71.40
2019-01-31T10:46:47.867Z,71.60
2019-01-31T10:49:58.873Z,69.90
2019-01-31T10:53:07.177Z,67.50
2019-01-31T10:56:19.096Z,67.20
2019-01-31T10:59:01.400Z,63.30
2019-01-31T11:01:45.543Z,62.40
2019-01-31T11:05:04.774Z,64.10
2019-01-31T11:08:06.905Z,61.90
2019-01-31T11:10:49.645Z,62.90
2019-01-31T11:13:51.648Z,63.00
2019-01-31T11:16:56.701Z,62.10
2019-01-31T11:19:44.055Z,63.80
2019-01-31T11:22:54.253Z,59.90
2019-01-31T11:26:04.630Z,60.50
2019-01-31T11:29:09.774Z,58.50
2019-01-31T11:32:15.515Z,58.30
2019-01-31T11:35:19.585Z,58.60
2019-01-31T11:38:11.026Z,57.80
2019-01-31T11:41:27.837Z,58.10
2019-01-31T11:44:23.874Z,56.30
2019-01-31T11:47:31.813Z,57.40
2019-01-31T11:50:53.024Z,55.40
2019-01-31T11:53:45.409Z,57.30
2019-01-31T11:56:45.565Z,54.70
2019-01-31T11:59:14.481Z,54.90
2019-01-31T12:01:43.682Z,53.50
2019-01-31T12:04:15.061Z,53.80
2019-01-31T12:06:43.989Z,52.50
2019-01-31T12:09:22.472Z,51.30
2019-01-31T12:11:52.229Z,51.80
2019-01-31T12:14:21.209Z,51.90
2019-01-31T12:16:50.560Z,52.60
2019-01-31T12:19:19.836Z,50.20
2019-01-31T12:21:49.057Z,50.60
2019-01-31T12:24:18.037Z,52.30
2019-01-31T12:26:47.140Z,50.30
2019-01-31T12:29:16.209Z,50.70
2019-01-31T12:31:45.193Z,48.70
2019-01-31T12:34:14.105Z,49.00
2019-01-31T12:36:43.386Z,48.50
2019-01-31T12:39:12.401Z,46.60
2019-01-31T12:41:41.250Z,47.60
2019-01-31T12:44:10.242Z,47.90
2019-01-31T12:46:39.415Z,47.80
2019-01-31T12:49:08.445Z,46.90
2019-01-31T12:51:37.937Z,46.80
2019-01-31T12:54:07.146Z,46.10
2019-01-31T12:56:36.330Z,46.30
2019-01-31T12:59:05.466Z,45.80
2019-01-31T13:01:34.361Z,45.50
2019-01-31T13:04:03.457Z,46.00
2019-01-31T13:06:32.374Z,45.70
2019-01-31T13:09:01.352Z,47.40
2019-01-31T13:11:30.257Z,47.80
2019-01-31T13:13:59.446Z,47.20
2019-01-31T13:16:28.461Z,48.00
2019-01-31T13:18:57.546Z,47.50
2019-01-31T13:21:26.591Z,46.50
2019-01-31T13:23:56.622Z,47.00
2019-01-31T13:26:25.605Z,47.30
2019-01-31T13:28:54.518Z,46.60
2019-01-31T13:31:23.745Z,45.20
2019-01-31T13:33:52.992Z,45.60
2019-01-31T13:36:22.350Z,45.40
2019-01-31T13:38:51.365Z,47.10
2019-01-31T13:41:20.619Z,46.50
2019-01-31T13:43:57.241Z,47.30
2019-01-31T13:46:20.373Z,47.00
2019-01-31T13:48:49.377Z,46.00
2019-01-31T13:51:18.364Z,44.70
2019-01-31T13:53:47.617Z,44.80
2019-01-31T13:56:17.161Z,45.00
2019-01-31T13:58:46.009Z,46.80
2019-01-31T14:01:15.229Z,46.60
2019-01-31T14:03:44.349Z,46.70
2019-01-31T14:06:13.247Z,47.60
2019-01-31T14:08:42.513Z,48.40
2019-01-31T14:11:11.518Z,48.00
2019-01-31T14:13:40.427Z,48.70
2019-01-31T14:16:09.686Z,48.60
2019-01-31T14:18:43.461Z,49.10
2019-01-31T14:21:12.491Z,49.60
2019-01-31T14:23:41.434Z,49.40
2019-01-31T14:26:10.557Z,50.10
2019-01-31T14:28:39.506Z,49.60
2019-01-31T14:31:08.575Z,50.60
2019-01-31T14:33:37.641Z,51.40
2019-01-31T14:36:07.091Z,51.10
2019-01-31T14:38:36.110Z,51.60
2019-01-31T14:41:05.202Z,52.10
2019-01-31T14:43:34.198Z,52.60
2019-01-31T14:46:03.306Z,54.00
2019-01-31T14:48:32.315Z,53.00
2019-01-31T14:51:01.351Z,53.30
2019-01-31T14:53:32.067Z,53.90
2019-01-31T14:56:00.954Z,54.50
2019-01-31T14:58:31.125Z,55.10
2019-01-31T15:00:59.983Z,55.50
2019-01-31T15:03:29.111Z,56.00
2019-01-31T15:05:58.358Z,56.20
2019-01-31T15:08:27.278Z,56.60
2019-01-31T15:10:56.390Z,57.20
2019-01-31T15:13:25.627Z,57.30
2019-01-31T15:15:56.092Z,57.00
2019-01-31T15:18:25.167Z,57.80
2019-01-31T15:20:55.561Z,57.70
2019-01-31T15:23:24.704Z,57.50
2019-01-31T15:25:53.876Z,58.10
2019-01-31T15:28:22.705Z,57.40
2019-01-31T15:30:51.900Z,60.00
2019-01-31T15:33:21.059Z,61.10
2019-01-31T15:35:50.211Z,59.90
2019-01-31T15:38:19.454Z,61.30
2019-01-31T15:40:49.485Z,60.30
2019-01-31T15:43:18.576Z,63.00
2019-01-31T15:45:47.655Z,62.30
2019-01-31T15:48:18.371Z,61.60
2019-01-31T15:50:47.432Z,61.50
2019-01-31T15:53:16.439Z,62.30
2019-01-31T15:55:45.691Z,62.80
2019-01-31T15:58:14.854Z,66.10
2019-01-31T16:00:46.948Z,66.70
2019-01-31T16:03:18.353Z,67.30
2019-01-31T16:05:47.994Z,66.50
2019-01-31T16:08:17.327Z,67.10
2019-01-31T16:10:46.745Z,67.30
2019-01-31T16:13:15.868Z,68.60
2019-01-31T16:15:45.644Z,71.10
2019-01-31T16:18:15.528Z,70.60
2019-01-31T16:20:44.797Z,69.20
2019-01-31T16:23:15.610Z,70.50
2019-01-31T16:25:47.673Z,71.40
2019-01-31T16:28:17.034Z,71.60
2019-01-31T16:30:48.147Z,71.70
2019-01-31T16:33:19.034Z,72.80
2019-01-31T16:35:49.041Z,73.00
2019-01-31T16:38:17.946Z,71.60
2019-01-31T16:40:46.941Z,73.00
2019-01-31T16:43:15.913Z,74.20
2019-01-31T16:45:46.187Z,74.20
2019-01-31T16:48:15.457Z,74.50
2019-01-31T16:50:44.444Z,72.40
2019-01-31T16:53:13.349Z,73.20
2019-01-31T16:55:42.353Z,75.50
2019-01-31T16:58:11.669Z,78.60
2019-01-31T17:00:40.669Z,77.80
2019-01-31T17:03:09.509Z,78.80
2019-01-31T17:05:38.695Z,99.90
2019-01-31T17:08:08.149Z,99.30
2019-01-31T17:10:37.146Z,85.90
2019-01-31T17:13:06.652Z,85.20
2019-01-31T17:15:35.841Z,88.40
2019-01-31T17:18:06.600Z,85.60
2019-01-31T17:20:41.298Z,85.90
2019-01-31T17:23:11.166Z,86.60
2019-01-31T17:25:40.201Z,88.10
2019-01-31T17:28:09.294Z,88.60
2019-01-31T17:30:38.212Z,90.60
2019-01-31T17:33:07.218Z,88.80
2019-01-31T17:35:36.204Z,87.90
2019-01-31T17:38:05.594Z,86.50
2019-01-31T17:40:37.297Z,87.50
2019-01-31T17:43:07.049Z,88.20
2019-01-31T17:45:36.048Z,88.00
2019-01-31T17:48:05.690Z,90.00
2019-01-31T17:50:34.534Z,90.00
2019-01-31T17:53:03.527Z,90.40
2019-01-31T17:55:32.534Z,90.70
2019-01-31T17:58:01.445Z,91.30
2019-01-31T18:00:46.417Z,90.30
2019-01-31T18:03:15.333Z,89.00
2019-01-31T18:05:44.413Z,89.80
2019-01-31T18:08:13.405Z,90.40
2019-01-31T18:10:42.309Z,91.20
2019-01-31T18:13:11.216Z,91.10
2019-01-31T18:15:42.086Z,90.70
2019-01-31T18:18:11.233Z,90.70
2019-01-31T18:20:40.069Z,90.90
2019-01-31T18:23:08.984Z,90.20
2019-01-31T18:25:37.900Z,89.20
2019-01-31T18:28:06.800Z,89.00
2019-01-31T18:30:35.813Z,88.10
2019-01-31T18:33:05.220Z,88.60
2019-01-31T18:35:34.127Z,89.30
2019-01-31T18:38:03.040Z,88.40
2019-01-31T18:40:32.421Z,88.10
2019-01-31T18:43:01.269Z,87.80
2019-01-31T18:45:31.329Z,88.90
2019-01-31T18:48:00.849Z,89.60
2019-01-31T18:50:32.075Z,88.70
2019-01-31T18:53:00.960Z,88.60
2019-01-31T18:55:29.991Z,89.80
2019-01-31T18:57:59.321Z,87.80
2019-01-31T19:00:30.538Z,86.30
2019-01-31T19:02:59.716Z,85.60
2019-01-31T19:05:28.901Z,86.70
2019-01-31T19:07:58.002Z,86.70
2019-01-31T19:10:27.347Z,86.30
2019-01-31T19:12:56.538Z,86.80
2019-01-31T19:15:25.765Z,88.80
2019-01-31T19:18:05.551Z,88.50
2019-01-31T19:20:27.768Z,87.70
2019-01-31T19:22:58.298Z,86.60
2019-01-31T19:25:27.294Z,87.60
2019-01-31T19:27:56.418Z,86.90
2019-01-31T19:30:27.920Z,86.70
2019-01-31T19:32:56.922Z,84.80
2019-01-31T19:35:25.902Z,85.40
2019-01-31T19:38:01.435Z,86.70
2019-01-31T19:40:27.989Z,83.80
2019-01-31T19:42:56.985Z,84.70
2019-01-31T19:45:31.386Z,86.10
2019-01-31T19:48:00.428Z,85.20
2019-01-31T19:50:29.658Z,85.40
2019-01-31T19:52:58.653Z,86.30
2019-01-31T19:55:27.648Z,85.30
2019-01-31T19:57:56.659Z,85.70
2019-01-31T20:00:25.788Z,84.20
2019-01-31T20:02:55.331Z,84.50
2019-01-31T20:05:24.919Z,84.90
2019-01-31T20:07:53.947Z,84.70
2019-01-31T20:10:24.522Z,84.80
2019-01-31T20:12:53.632Z,84.60
2019-01-31T20:15:22.934Z,84.30
2019-01-31T20:17:51.941Z,86.60
2019-01-31T20:20:23.053Z,86.10
2019-01-31T20:22:52.966Z,84.90
2019-01-31T20:25:22.415Z,86.60
2019-01-31T20:27:51.526Z,85.00
2019-01-31T20:30:22.796Z,85.50
2019-01-31T20:32:52.143Z,85.50
2019-01-31T20:35:21.639Z,85.70
2019-01-31T20:37:50.645Z,84.90
2019-01-31T20:40:22.269Z,84.10
2019-01-31T20:42:51.575Z,84.80
2019-01-31T20:45:20.715Z,85.00
2019-01-31T20:47:49.726Z,85.40
2019-01-31T20:50:24.030Z,84.80
2019-01-31T20:52:53.555Z,84.90
2019-01-31T20:55:23.207Z,86.00
2019-01-31T20:57:52.213Z,84.00
2019-01-31T21:00:28.305Z,85.10
2019-01-31T21:02:57.284Z,85.90
2019-01-31T21:05:26.546Z,85.80
2019-01-31T21:07:55.528Z,86.20
2019-01-31T21:10:26.453Z,87.40
2019-01-31T21:12:55.617Z,86.00
2019-01-31T21:15:24.969Z,85.80
2019-01-31T21:17:54.258Z,85.40
2019-01-31T21:20:26.197Z,87.10
2019-01-31T21:22:54.339Z,87.10
2019-01-31T21:25:23.349Z,87.50
2019-01-31T21:27:52.884Z,87.10
2019-01-31T21:30:28.130Z,86.50
2019-01-31T21:32:57.105Z,86.00
2019-01-31T21:35:27.088Z,85.70
2019-01-31T21:37:56.421Z,85.60
2019-01-31T21:40:26.036Z,86.50
2019-01-31T21:42:55.001Z,86.30
2019-01-31T21:45:24.421Z,85.10
2019-01-31T21:47:53.401Z,87.10
2019-01-31T21:50:22.659Z,85.90
2019-01-31T21:52:51.642Z,86.40
2019-01-31T21:55:21.355Z,85.70
2019-01-31T21:57:50.302Z,85.30
2019-01-31T22:00:37.545Z,87.40
2019-01-31T22:03:07.570Z,87.40
2019-01-31T22:05:36.553Z,87.50
2019-01-31T22:08:05.889Z,87.10
2019-01-31T22:10:34.959Z,87.80
2019-01-31T22:13:04.529Z,87.30
2019-01-31T22:15:34.081Z,86.80
2019-01-31T22:18:03.178Z,86.10
2019-01-31T22:20:32.374Z,85.70
2019-01-31T22:23:01.626Z,85.20
2019-01-31T22:25:30.530Z,85.30
2019-01-31T22:27:59.453Z,85.90
2019-01-31T22:30:33.573Z,84.40
2019-01-31T22:33:02.490Z,83.90
2019-01-31T22:35:31.761Z,83.30
2019-01-31T22:38:00.669Z,82.50
2019-01-31T22:40:29.643Z,82.70
2019-01-31T22:42:58.560Z,84.10
2019-01-31T22:45:27.545Z,84.30
2019-01-31T22:47:56.801Z,84.50
2019-01-31T22:50:25.982Z,84.60
2019-01-31T22:52:54.900Z,85.00
2019-01-31T22:55:24.858Z,84.50
2019-01-31T22:57:53.942Z,86.00
2019-01-31T23:01:05.336Z,86.40
2019-01-31T23:03:34.614Z,85.60
2019-01-31T23:06:04.084Z,84.80
2019-01-31T23:08:32.997Z,85.50
2019-01-31T23:11:01.973Z,85.00
2019-01-31T23:13:31.196Z,86.10
2019-01-31T23:16:00.169Z,86.20
2019-01-31T23:18:29.005Z,86.20
2019-01-31T23:20:57.918Z,86.60
2019-01-31T23:23:26.829Z,86.40
2019-01-31T23:25:56.002Z,87.40
2019-01-31T23:28:25.002Z,86.40
2019-01-31T23:30:53.904Z,86.50
2019-01-31T23:33:22.814Z,86.30
2019-01-31T23:35:52.110Z,86.40
2019-01-31T23:38:21.029Z,86.00
2019-01-31T23:40:49.856Z,85.50
2019-01-31T23:43:18.841Z,85.40
2019-01-31T23:45:47.753Z,85.60
2019-01-31T23:48:16.686Z,85.90
2019-01-31T23:50:46.036Z,86.20
2019-01-31T23:53:14.994Z,86.10
2019-01-31T23:55:43.834Z,85.40
2019-01-31T23:58:12.677Z,85.70
